Time;durP1;ratioP1;P1;durP2;ratioP2;P2;SDS_P1;SDS_P2;PMS_P1;PMS_P2;Temp;Humidity;BMP_temperature;BMP_pressure;BME280_temperature;BME280_humidity;BME280_pressure;Samples;Min_cycle;Max_cycle;Signal;HPM_P1;HPM_P2
2022/01/22 00:02:14;;;;;;;37.07;22.27;;;4.30;99.90;;;;;;5074225;28;20239;-60
2022/01/22 00:04:41;;;;;;;39.03;24.57;;;4.30;99.90;;;;;;5074424;28;20572;-59
2022/01/22 00:07:09;;;;;;;41.07;23.70;;;4.30;99.90;;;;;;5074201;28;20211;-59
2022/01/22 00:09:39;;;;;;;43.77;24.83;;;4.20;99.90;;;;;;5074445;28;20206;-59
2022/01/22 00:12:10;;;;;;;43.20;24.53;;;4.30;99.90;;;;;;5074292;28;20231;-59
2022/01/22 00:14:37;;;;;;;45.43;24.57;;;4.20;99.90;;;;;;5074075;28;20208;-60
2022/01/22 00:17:05;;;;;;;43.13;25.17;;;4.20;99.90;;;;;;5073943;28;20602;-59
2022/01/22 00:19:32;;;;;;;43.10;24.93;;;4.20;99.90;;;;;;5073814;28;20296;-58
2022/01/22 00:21:59;;;;;;;47.07;24.97;;;4.30;99.90;;;;;;5074183;28;20239;-59
2022/01/22 00:24:26;;;;;;;39.80;22.80;;;4.30;99.90;;;;;;5073740;28;20672;-59
2022/01/22 00:26:52;;;;;;;53.20;26.37;;;4.30;99.90;;;;;;5074198;28;20206;-58
2022/01/22 00:29:19;;;;;;;40.37;23.20;;;4.30;99.90;;;;;;5074151;28;20589;-58
2022/01/22 00:31:46;;;;;;;48.50;25.10;;;4.30;99.90;;;;;;5074005;28;20645;-59
2022/01/22 00:34:14;;;;;;;38.27;22.60;;;4.30;99.90;;;;;;5073994;28;20216;-57
2022/01/22 00:36:41;;;;;;;41.47;23.23;;;4.30;99.90;;;;;;5073513;28;20227;-58
2022/01/22 00:39:08;;;;;;;49.30;22.10;;;4.30;99.90;;;;;;5073761;28;20209;-59
2022/01/22 00:41:35;;;;;;;40.57;20.83;;;4.30;99.90;;;;;;5073638;28;20227;-58
2022/01/22 00:44:02;;;;;;;38.43;21.93;;;4.30;99.90;;;;;;5074343;28;20207;-60
2022/01/22 00:46:29;;;;;;;37.00;21.83;;;4.30;99.90;;;;;;5073244;28;20211;-60
2022/01/22 00:48:56;;;;;;;48.03;21.87;;;4.30;99.90;;;;;;5073351;28;20205;-60
2022/01/22 00:51:24;;;;;;;37.03;21.47;;;4.30;99.90;;;;;;5073300;28;20722;-60
2022/01/22 00:53:51;;;;;;;40.40;20.00;;;4.30;99.90;;;;;;5073686;28;20212;-59
2022/01/22 00:56:18;;;;;;;36.53;19.63;;;4.30;99.90;;;;;;5073608;28;20229;-59
2022/01/22 00:58:45;;;;;;;38.33;18.97;;;4.30;99.90;;;;;;5072981;28;20204;-60
2022/01/22 01:01:11;;;;;;;37.90;21.47;;;4.30;99.90;;;;;;5072925;28;20619;-59
2022/01/22 01:03:38;;;;;;;32.40;19.57;;;4.30;99.90;;;;;;5074323;28;20665;-58
2022/01/22 01:06:06;;;;;;;35.23;20.80;;;4.30;99.90;;;;;;5075164;28;20218;-59
2022/01/22 01:08:35;;;;;;;41.10;21.10;;;4.30;99.90;;;;;;5073934;28;20219;-59
2022/01/22 01:11:02;;;;;;;38.10;21.10;;;4.30;99.90;;;;;;5073211;28;20318;-58
2022/01/22 01:13:33;;;;;;;36.67;21.20;;;4.30;99.90;;;;;;5072796;28;20211;-59
2022/01/22 01:16:03;;;;;;;38.87;19.97;;;4.30;99.90;;;;;;5072753;28;20251;-57
2022/01/22 01:32:26;;;;;;;33.17;18.80;;;4.30;99.90;;;;;;5072573;28;20219;-58
2022/01/22 01:34:52;;;;;;;45.73;23.20;;;4.40;99.90;;;;;;5072478;28;20901;-59
2022/01/22 01:37:20;;;;;;;40.87;22.70;;;4.30;99.90;;;;;;5072174;28;20644;-59
2022/01/22 01:39:53;;;;;;;41.37;22.37;;;4.30;99.90;;;;;;5072652;28;20213;-58
2022/01/22 01:42:26;;;;;;;38.93;20.33;;;4.30;99.90;;;;;;5072561;28;20264;-59
2022/01/22 01:44:52;;;;;;;38.90;20.83;;;4.30;99.90;;;;;;5072244;28;20258;-56
2022/01/22 01:47:21;;;;;;;38.87;22.60;;;4.30;99.90;;;;;;5072444;28;20204;-58
2022/01/22 01:49:47;;;;;;;36.53;21.80;;;4.30;99.90;;;;;;5072160;28;20305;-56
2022/01/22 01:52:20;;;;;;;35.33;21.70;;;4.30;99.90;;;;;;5072325;28;20228;-59
2022/01/22 01:55:01;;;;;;;37.07;21.77;;;4.20;99.90;;;;;;5072383;28;20207;-59
2022/01/22 01:57:38;;;;;;;40.90;22.47;;;4.30;99.90;;;;;;5071844;28;20228;-59
2022/01/22 02:00:08;;;;;;;39.07;22.20;;;4.20;99.90;;;;;;5072405;28;20202;-59
2022/01/22 02:02:36;;;;;;;41.93;23.23;;;4.30;99.90;;;;;;5072479;28;20207;-60
2022/01/22 02:05:04;;;;;;;47.53;25.13;;;4.30;99.90;;;;;;5072125;28;20213;-60
2022/01/22 02:07:31;;;;;;;39.50;24.80;;;4.30;99.90;;;;;;5072362;28;20283;-61
2022/01/22 02:09:59;;;;;;;43.93;23.70;;;4.20;99.90;;;;;;5071798;28;20578;-58
2022/01/22 02:12:48;;;;;;;42.40;25.03;;;4.30;99.90;;;;;;5072015;28;20205;-59
2022/01/22 02:23:36;;;;;;;43.67;23.40;;;4.20;99.90;;;;;;5072333;28;20186;-59
2022/01/22 02:26:04;;;;;;;39.67;23.70;;;4.20;99.90;;;;;;5072158;28;20221;-60
2022/01/22 02:28:31;;;;;;;43.77;23.97;;;4.20;99.90;;;;;;5071779;28;20600;-59
2022/01/22 02:31:06;;;;;;;37.37;23.17;;;4.20;99.90;;;;;;5072164;28;20232;-56
2022/01/22 02:33:46;;;;;;;43.20;23.97;;;4.20;99.90;;;;;;5071592;28;20205;-60
2022/01/22 02:36:19;;;;;;;42.77;23.20;;;4.20;99.90;;;;;;5071732;28;20210;-57
2022/01/22 02:38:52;;;;;;;44.47;24.17;;;4.20;99.90;;;;;;5071707;28;20204;-61
2022/01/22 02:41:22;;;;;;;36.97;20.17;;;4.20;99.90;;;;;;5071892;28;20239;-56
2022/01/22 02:43:49;;;;;;;42.30;23.60;;;4.20;99.90;;;;;;5071945;28;20297;-59
2022/01/22 02:46:17;;;;;;;41.60;25.47;;;4.20;99.90;;;;;;5071698;28;20565;-59
2022/01/22 02:48:44;;;;;;;41.83;24.70;;;4.20;99.90;;;;;;5071735;28;20229;-60
2022/01/22 02:51:11;;;;;;;42.33;24.10;;;4.20;99.90;;;;;;5071412;28;20717;-60
2022/01/22 02:53:38;;;;;;;48.87;25.83;;;4.20;99.90;;;;;;5071485;28;20673;-59
2022/01/22 02:56:07;;;;;;;45.97;26.67;;;4.20;99.90;;;;;;5071628;28;20214;-57
2022/01/22 02:58:34;;;;;;;47.30;26.37;;;4.20;99.90;;;;;;5071743;28;20285;-58
2022/01/22 03:01:00;;;;;;;53.27;27.10;;;4.20;99.90;;;;;;5071484;28;20588;-58
2022/01/22 03:03:27;;;;;;;46.37;25.43;;;4.30;99.90;;;;;;5071481;28;20679;-60
2022/01/22 03:05:54;;;;;;;46.20;25.03;;;4.30;99.90;;;;;;5071185;28;20211;-58
2022/01/22 03:08:24;;;;;;;45.77;25.80;;;4.20;99.90;;;;;;5071443;28;20673;-59
2022/01/22 03:10:53;;;;;;;47.80;25.63;;;4.30;99.90;;;;;;5072714;28;20228;-59
2022/01/22 03:14:06;;;;;;;42.37;25.17;;;4.30;99.90;;;;;;5073615;28;20217;-58
2022/01/22 03:16:47;;;;;;;52.50;26.67;;;4.30;99.90;;;;;;5071463;28;20726;-59
2022/01/22 03:19:29;;;;;;;45.00;25.53;;;4.20;99.90;;;;;;5071626;28;20204;-59
2022/01/22 03:22:01;;;;;;;50.60;26.97;;;4.20;99.90;;;;;;5071249;28;20775;-58
2022/01/22 03:27:23;;;;;;;44.33;24.37;;;4.30;99.90;;;;;;5074829;28;20191;-59
2022/01/22 03:29:51;;;;;;;42.63;21.77;;;4.30;99.90;;;;;;5075293;28;20257;-59
2022/01/22 03:32:20;;;;;;;45.87;25.77;;;4.30;99.90;;;;;;5075077;28;20208;-59
2022/01/22 03:34:56;;;;;;;50.60;26.43;;;4.30;99.90;;;;;;5075002;28;20201;-59
2022/01/22 03:37:24;;;;;;;43.60;24.73;;;4.30;99.90;;;;;;5074564;28;20257;-58
2022/01/22 03:39:51;;;;;;;47.03;25.30;;;4.30;99.90;;;;;;5075066;28;20209;-60
2022/01/22 03:42:17;;;;;;;50.33;26.10;;;4.30;99.90;;;;;;5075106;28;20213;-59
2022/01/22 03:44:44;;;;;;;49.27;26.60;;;4.40;99.90;;;;;;5074795;28;20215;-59
2022/01/22 03:47:12;;;;;;;49.23;26.00;;;4.40;99.90;;;;;;5074610;28;20204;-59
2022/01/22 03:49:39;;;;;;;50.30;27.03;;;4.30;99.90;;;;;;5074473;28;20847;-56
2022/01/22 03:52:06;;;;;;;43.53;25.07;;;4.30;99.90;;;;;;5074490;28;20232;-58
2022/01/22 03:54:33;;;;;;;48.27;26.40;;;4.40;99.90;;;;;;5074602;28;20619;-57
2022/01/22 03:57:00;;;;;;;49.60;26.27;;;4.30;99.90;;;;;;5074503;28;20614;-60
2022/01/22 03:59:28;;;;;;;48.13;24.73;;;4.40;99.90;;;;;;5074958;28;20245;-58
2022/01/22 04:02:37;;;;;;;47.03;24.47;;;4.40;99.90;;;;;;5074742;28;20224;-60
2022/01/22 04:05:04;;;;;;;42.27;22.83;;;4.40;99.90;;;;;;5074370;28;20581;-59
2022/01/22 04:08:00;;;;;;;42.60;24.43;;;4.40;99.90;;;;;;5074464;28;20210;-60
2022/01/22 04:10:25;;;;;;;29.00;16.93;;;4.40;99.90;;;;;;5074002;28;20223;-60
2022/01/22 04:12:58;;;;;;;46.83;23.80;;;4.40;99.90;;;;;;5074151;28;20250;-59
2022/01/22 04:15:27;;;;;;;47.07;23.83;;;4.40;99.90;;;;;;5074395;28;20204;-60
2022/01/22 04:26:17;;;;;;;45.63;23.20;;;4.40;99.90;;;;;;5074923;28;20555;-58
2022/01/22 04:28:44;;;;;;;42.87;21.83;;;4.40;99.90;;;;;;5074647;28;20259;-59
2022/01/22 04:31:11;;;;;;;40.50;21.43;;;4.40;99.90;;;;;;5074506;28;20640;-59
2022/01/22 04:33:37;;;;;;;41.50;22.30;;;4.40;99.90;;;;;;5073779;28;20211;-61
2022/01/22 04:36:06;;;;;;;40.33;22.30;;;4.30;99.90;;;;;;5074969;28;20712;-60
2022/01/22 04:38:33;;;;;;;35.50;19.10;;;4.40;99.90;;;;;;5074039;28;20227;-59
2022/01/22 04:41:00;;;;;;;39.90;19.70;;;4.40;99.90;;;;;;5074275;28;20260;-59
2022/01/22 04:43:30;;;;;;;42.30;21.43;;;4.40;99.90;;;;;;5073761;28;20208;-58
2022/01/22 04:46:08;;;;;;;40.40;19.67;;;4.50;99.90;;;;;;5073436;28;20246;-60
2022/01/22 04:48:52;;;;;;;37.27;20.00;;;4.50;99.90;;;;;;5073645;28;20200;-60
2022/01/22 04:56:50;;;;;;;39.40;18.90;;;4.50;99.90;;;;;;5073497;28;20255;-59
2022/01/22 04:59:17;;;;;;;33.47;19.37;;;4.50;99.90;;;;;;5073626;28;20252;-58
2022/01/22 05:01:43;;;;;;;31.83;16.90;;;4.50;99.90;;;;;;5073375;28;20225;-59
2022/01/22 05:04:10;;;;;;;33.00;18.40;;;4.50;99.90;;;;;;5073332;28;20205;-60
2022/01/22 05:06:38;;;;;;;38.23;19.90;;;4.50;99.90;;;;;;5072972;28;20241;-60
2022/01/22 05:09:05;;;;;;;38.70;20.10;;;4.50;99.90;;;;;;5073188;28;20203;-60
2022/01/22 05:11:32;;;;;;;36.73;19.37;;;4.50;99.90;;;;;;5073057;28;20293;-60
2022/01/22 05:13:58;;;;;;;35.23;16.87;;;4.60;99.90;;;;;;5073224;28;20203;-59
2022/01/22 05:16:25;;;;;;;42.43;20.57;;;4.60;99.90;;;;;;5072869;28;20214;-60
2022/01/22 05:18:57;;;;;;;41.43;20.63;;;4.60;99.90;;;;;;5072968;28;20229;-60
2022/01/22 05:21:25;;;;;;;38.03;18.10;;;4.60;99.90;;;;;;5072800;28;20684;-58
2022/01/22 05:23:55;;;;;;;34.50;18.13;;;4.60;99.90;;;;;;5073167;28;20219;-60
2022/01/22 05:29:21;;;;;;;40.03;20.87;;;4.60;99.90;;;;;;5041641;28;20254;-58
2022/01/22 05:32:16;;;;;;;41.20;20.17;;;4.60;99.90;;;;;;5073214;28;20221;-57
2022/01/22 05:37:24;;;;;;;36.47;18.00;;;4.60;99.90;;;;;;5041446;28;20239;-60
2022/01/22 05:39:52;;;;;;;38.77;18.93;;;4.60;99.90;;;;;;5072622;28;20220;-60
2022/01/22 05:42:19;;;;;;;32.37;17.17;;;4.60;99.90;;;;;;5072364;28;20212;-59
2022/01/22 05:44:45;;;;;;;32.93;17.13;;;4.70;99.90;;;;;;5072543;28;20208;-60
2022/01/22 05:47:19;;;;;;;34.30;17.43;;;4.60;99.90;;;;;;5072561;28;20254;-60
2022/01/22 05:49:46;;;;;;;38.57;19.00;;;4.60;99.90;;;;;;5072309;28;20269;-59
2022/01/22 05:52:15;;;;;;;39.67;19.87;;;4.70;99.90;;;;;;5072330;28;20232;-59
2022/01/22 06:00:15;;;;;;;41.37;19.37;;;4.70;99.90;;;;;;5072318;28;20634;-60
2022/01/22 06:02:42;;;;;;;44.93;19.43;;;4.70;99.90;;;;;;5072128;28;20265;-59
2022/01/22 06:05:09;;;;;;;39.37;19.63;;;4.70;99.90;;;;;;5071981;28;20237;-60
2022/01/22 06:07:35;;;;;;;40.73;19.83;;;4.60;99.90;;;;;;5072203;28;20563;-60
2022/01/22 06:10:16;;;;;;;41.10;19.73;;;4.70;99.90;;;;;;5072016;28;20564;-58
2022/01/22 06:12:57;;;;;;;36.90;20.27;;;4.70;99.90;;;;;;5072178;28;20261;-58
2022/01/22 06:15:24;;;;;;;37.23;18.40;;;4.70;99.90;;;;;;5071885;28;20265;-59
2022/01/22 06:17:51;;;;;;;42.53;20.03;;;4.60;99.90;;;;;;5071643;28;20220;-60
2022/01/22 06:20:17;;;;;;;42.70;20.53;;;4.60;99.90;;;;;;5072053;28;20228;-60
2022/01/22 06:22:44;;;;;;;43.67;20.87;;;4.70;99.90;;;;;;5072085;28;20201;-58
2022/01/22 06:25:11;;;;;;;42.83;20.77;;;4.70;99.90;;;;;;5072112;28;20226;-59
2022/01/22 06:27:38;;;;;;;38.87;20.23;;;4.70;99.90;;;;;;5072904;28;20716;-61
2022/01/22 06:30:07;;;;;;;42.20;20.10;;;4.70;99.90;;;;;;5073176;28;20678;-58
2022/01/22 06:32:33;;;;;;;42.57;18.57;;;4.80;99.90;;;;;;5073409;28;20205;-58
2022/01/22 06:35:00;;;;;;;40.90;19.13;;;4.70;99.90;;;;;;5072007;28;20438;-58
2022/01/22 06:37:27;;;;;;;35.17;17.43;;;4.70;99.90;;;;;;5071313;28;20219;-56
2022/01/22 06:42:35;;;;;;;31.53;15.37;;;4.80;99.90;;;;;;5071187;28;20609;-58
2022/01/22 06:45:04;;;;;;;38.03;17.80;;;4.80;99.90;;;;;;5072175;28;20211;-57
2022/01/22 06:47:33;;;;;;;33.50;17.43;;;4.80;99.90;;;;;;5071576;28;20237;-57
2022/01/22 06:50:00;;;;;;;35.83;17.67;;;4.80;99.90;;;;;;5071590;28;20832;-58
2022/01/22 06:52:28;;;;;;;40.27;16.83;;;4.80;99.90;;;;;;5071863;28;20213;-56
2022/01/22 06:54:55;;;;;;;36.77;17.17;;;4.80;99.90;;;;;;5071565;28;20217;-58
2022/01/22 06:57:21;;;;;;;41.47;19.70;;;4.80;99.90;;;;;;5072057;28;20217;-58
2022/01/22 06:59:49;;;;;;;35.27;18.47;;;4.80;99.90;;;;;;5075795;28;20270;-58
2022/01/22 07:02:17;;;;;;;34.57;16.47;;;4.80;99.90;;;;;;5075661;28;20229;-58
2022/01/22 07:04:45;;;;;;;40.20;18.03;;;4.80;99.90;;;;;;5075521;28;20204;-57
2022/01/22 07:07:12;;;;;;;37.00;17.83;;;4.80;99.90;;;;;;5075377;28;20212;-58
2022/01/22 07:09:39;;;;;;;41.80;17.80;;;4.80;99.90;;;;;;5075362;28;20210;-57
2022/01/22 07:12:08;;;;;;;38.10;18.87;;;4.70;99.90;;;;;;5075188;28;20323;-58
2022/01/22 07:14:34;;;;;;;37.77;17.57;;;4.80;99.90;;;;;;5075164;28;20212;-58
2022/01/22 07:17:01;;;;;;;33.97;16.63;;;4.80;99.90;;;;;;5075273;28;20209;-59
2022/01/22 07:19:29;;;;;;;38.67;18.60;;;4.80;99.90;;;;;;5075272;28;20709;-56
2022/01/22 07:22:03;;;;;;;41.60;17.00;;;4.90;99.90;;;;;;5075103;28;20221;-56
2022/01/22 07:24:37;;;;;;;37.47;17.37;;;4.90;99.90;;;;;;5075036;28;20286;-58
2022/01/22 07:27:04;;;;;;;34.73;15.30;;;4.80;99.90;;;;;;5074927;28;20214;-58
2022/01/22 07:29:31;;;;;;;41.57;17.07;;;4.90;99.90;;;;;;5075143;28;20208;-59
2022/01/22 07:32:00;;;;;;;33.83;16.03;;;4.90;99.90;;;;;;5075237;28;20275;-57
2022/01/22 07:34:27;;;;;;;35.60;15.97;;;4.90;99.90;;;;;;5075290;28;20252;-58
2022/01/22 07:36:53;;;;;;;37.50;16.53;;;4.90;99.90;;;;;;5074006;28;20262;-59
2022/01/22 07:39:21;;;;;;;39.30;15.37;;;4.90;99.90;;;;;;5074222;28;20228;-56
2022/01/22 07:41:50;;;;;;;36.53;16.00;;;4.80;99.90;;;;;;5074432;28;20232;-58
2022/01/22 07:44:17;;;;;;;38.50;14.80;;;4.80;99.90;;;;;;5074936;28;20205;-58
2022/01/22 07:46:44;;;;;;;43.63;17.33;;;4.80;99.90;;;;;;5074391;28;20204;-59
2022/01/22 07:49:10;;;;;;;38.53;16.97;;;4.90;99.90;;;;;;5074285;28;20230;-60
2022/01/22 07:51:37;;;;;;;42.30;17.63;;;4.80;99.90;;;;;;5073988;28;20259;-59
2022/01/22 07:54:04;;;;;;;39.57;18.07;;;4.90;99.90;;;;;;5074222;28;20212;-59
2022/01/22 07:56:32;;;;;;;43.67;17.03;;;4.80;99.90;;;;;;5074175;28;20211;-59
2022/01/22 07:58:59;;;;;;;42.17;16.83;;;4.90;99.90;;;;;;5073830;28;20266;-59
2022/01/22 08:01:25;;;;;;;41.70;16.70;;;4.90;99.90;;;;;;5073952;28;20247;-60
2022/01/22 08:03:53;;;;;;;39.73;16.73;;;5.00;99.90;;;;;;5074219;28;20291;-60
2022/01/22 08:06:20;;;;;;;35.50;16.43;;;4.90;99.90;;;;;;5074295;28;20245;-57
2022/01/22 08:08:47;;;;;;;38.83;18.17;;;4.90;99.90;;;;;;5073692;28;20208;-59
2022/01/22 08:11:13;;;;;;;46.00;18.47;;;4.90;99.90;;;;;;5075083;28;20231;-58
2022/01/22 08:13:41;;;;;;;45.63;18.70;;;5.00;99.90;;;;;;5075143;28;20318;-61
2022/01/22 08:16:08;;;;;;;43.77;18.57;;;5.00;99.90;;;;;;5074165;28;20213;-59
2022/01/22 08:18:34;;;;;;;46.70;18.87;;;5.00;99.90;;;;;;5074031;28;20223;-59
2022/01/22 08:21:02;;;;;;;46.57;18.83;;;4.90;99.90;;;;;;5073663;28;20224;-61
2022/01/22 08:23:29;;;;;;;47.13;19.13;;;5.00;99.90;;;;;;5074308;28;20258;-58
2022/01/22 08:25:55;;;;;;;45.57;18.20;;;4.90;99.90;;;;;;5073828;28;20201;-59
2022/01/22 08:31:19;;;;;;;41.07;18.20;;;5.00;99.90;;;;;;5073521;28;20290;-58
2022/01/22 08:36:29;;;;;;;40.17;17.43;;;5.20;99.90;;;;;;5073118;28;20216;-61
2022/01/22 08:38:56;;;;;;;44.03;17.57;;;5.20;99.90;;;;;;5073628;28;20262;-59
2022/01/22 08:41:23;;;;;;;46.27;17.33;;;5.20;99.90;;;;;;5073825;28;20240;-58
2022/01/22 08:43:50;;;;;;;39.20;15.93;;;5.20;99.90;;;;;;5073211;28;20623;-59
2022/01/22 08:46:18;;;;;;;40.90;18.33;;;5.20;99.90;;;;;;5073187;28;20205;-60
2022/01/22 08:48:45;;;;;;;42.10;17.63;;;5.20;99.90;;;;;;5073359;28;20204;-59
2022/01/22 08:51:12;;;;;;;36.40;15.93;;;5.30;99.90;;;;;;5073147;28;20228;-64
2022/01/22 08:53:39;;;;;;;36.63;17.90;;;5.40;99.90;;;;;;5073380;28;20243;-64
2022/01/22 08:56:07;;;;;;;37.47;16.67;;;5.60;99.90;;;;;;5073171;28;20201;-59
2022/01/22 08:58:34;;;;;;;45.07;18.33;;;5.90;99.90;;;;;;5073224;28;20225;-59
2022/01/22 09:01:01;;;;;;;47.33;20.27;;;5.90;99.90;;;;;;5073555;28;20307;-59
2022/01/22 09:03:29;;;;;;;41.60;17.97;;;5.90;99.90;;;;;;5073653;28;20611;-59
2022/01/22 09:05:57;;;;;;;40.00;18.53;;;5.80;99.90;;;;;;5074404;28;20299;-60
2022/01/22 09:08:25;;;;;;;41.27;16.97;;;5.80;99.90;;;;;;5074899;28;20208;-58
2022/01/22 09:10:52;;;;;;;40.37;18.93;;;5.70;99.90;;;;;;5073028;28;20268;-59
2022/01/22 09:13:21;;;;;;;39.90;18.63;;;5.70;99.90;;;;;;5073263;28;20240;-60
2022/01/22 09:15:49;;;;;;;40.90;17.83;;;5.70;99.90;;;;;;5073860;28;20295;-59
2022/01/22 09:18:16;;;;;;;39.50;19.30;;;5.70;99.90;;;;;;5074393;28;20213;-59
2022/01/22 09:21:01;;;;;;;37.23;18.03;;;5.80;99.90;;;;;;5072312;28;20232;-59
2022/01/22 09:23:29;;;;;;;44.77;19.13;;;5.80;99.90;;;;;;5072465;28;20223;-59
2022/01/22 09:25:55;;;;;;;38.63;18.97;;;5.70;99.90;;;;;;5072348;28;20205;-60
2022/01/22 09:28:22;;;;;;;37.63;19.67;;;5.70;99.90;;;;;;5072466;28;20205;-59
2022/01/22 09:30:49;;;;;;;44.60;18.60;;;5.80;99.90;;;;;;5072456;28;20225;-60
2022/01/22 09:33:16;;;;;;;40.97;19.87;;;5.80;99.90;;;;;;5072481;28;20252;-60
2022/01/22 09:35:44;;;;;;;37.60;19.43;;;5.80;99.90;;;;;;5071888;28;20266;-61
2022/01/22 09:38:10;;;;;;;35.13;17.77;;;5.80;99.90;;;;;;5072334;28;20676;-60
2022/01/22 09:40:37;;;;;;;38.93;17.50;;;5.80;99.90;;;;;;5072245;28;20228;-60
2022/01/22 09:43:04;;;;;;;39.17;19.20;;;5.80;99.90;;;;;;5072762;28;20220;-61
2022/01/22 09:45:31;;;;;;;41.03;19.13;;;5.70;99.90;;;;;;5072691;28;20737;-60
2022/01/22 09:48:00;;;;;;;40.10;19.47;;;5.70;99.90;;;;;;5072249;28;20713;-60
2022/01/22 09:50:29;;;;;;;42.17;19.93;;;5.70;99.90;;;;;;5072636;28;20282;-60
2022/01/22 09:52:58;;;;;;;41.03;19.77;;;5.80;99.90;;;;;;5074646;28;20288;-60
2022/01/22 09:55:25;;;;;;;42.93;22.17;;;5.70;99.90;;;;;;5075019;28;20671;-60
2022/01/22 09:57:53;;;;;;;39.70;20.17;;;5.70;99.90;;;;;;5072453;28;20205;-60
2022/01/22 10:00:22;;;;;;;38.70;19.90;;;5.70;99.90;;;;;;5071998;28;20321;-61
2022/01/22 10:02:50;;;;;;;46.57;22.40;;;5.70;99.90;;;;;;5071927;28;20209;-61
2022/01/22 10:05:31;;;;;;;45.13;21.50;;;5.80;99.90;;;;;;5072123;28;20671;-60
2022/01/22 10:08:24;;;;;;;45.00;22.73;;;5.70;99.90;;;;;;5062733;28;20204;-60
2022/01/22 10:10:52;;;;;;;42.43;20.67;;;5.70;99.90;;;;;;5071897;28;20225;-61
2022/01/22 10:13:43;;;;;;;46.90;21.87;;;5.70;99.90;;;;;;5071244;28;20204;-62
2022/01/22 10:16:19;;;;;;;45.13;20.70;;;5.60;99.90;;;;;;5071603;28;20200;-64
2022/01/22 10:18:46;;;;;;;46.67;21.90;;;5.60;99.90;;;;;;5071313;28;20267;-62
2022/01/22 10:21:16;;;;;;;37.07;18.90;;;5.60;99.90;;;;;;5071397;28;20221;-62
2022/01/22 10:23:46;;;;;;;35.97;19.33;;;5.60;99.90;;;;;;5071340;28;20300;-62
2022/01/22 10:26:14;;;;;;;40.83;19.00;;;5.70;99.90;;;;;;5072634;28;20196;-62
2022/01/22 10:28:49;;;;;;;35.73;18.90;;;5.70;99.90;;;;;;5072158;28;20209;-62
2022/01/22 10:31:24;;;;;;;36.47;19.33;;;5.80;99.90;;;;;;5071617;28;20315;-61
2022/01/22 10:34:09;;;;;;;36.63;17.80;;;5.80;99.90;;;;;;5071420;28;20686;-61
2022/01/22 10:36:36;;;;;;;41.83;20.00;;;5.80;99.90;;;;;;5070797;28;20772;-67
2022/01/22 10:39:07;;;;;;;40.80;19.30;;;5.90;99.90;;;;;;5071116;28;20225;-61
2022/01/22 10:41:37;;;;;;;45.07;21.43;;;5.90;99.90;;;;;;5071188;28;20225;-61
2022/01/22 10:44:07;;;;;;;42.37;20.37;;;5.90;99.90;;;;;;5071140;28;20212;-62
2022/01/22 10:46:46;;;;;;;39.67;20.00;;;5.90;99.90;;;;;;5070855;28;20207;-61
2022/01/22 10:49:16;;;;;;;39.43;20.40;;;6.00;99.90;;;;;;5071179;28;20232;-62
2022/01/22 10:51:49;;;;;;;40.77;20.97;;;5.90;99.90;;;;;;5071042;28;20317;-61
2022/01/22 10:54:18;;;;;;;43.43;20.40;;;5.90;99.90;;;;;;5071293;28;20607;-60
2022/01/22 10:56:46;;;;;;;46.83;22.07;;;5.90;99.90;;;;;;5071556;28;20208;-59
2022/01/22 10:59:14;;;;;;;40.87;21.40;;;5.80;99.90;;;;;;5070766;28;20229;-65
2022/01/22 11:01:55;;;;;;;40.20;19.47;;;5.90;99.90;;;;;;5072679;28;20229;-64
2022/01/22 11:04:23;;;;;;;41.03;20.60;;;5.80;99.90;;;;;;5071323;28;20215;-65
2022/01/22 11:06:53;;;;;;;40.50;19.53;;;5.80;99.90;;;;;;5071008;28;20702;-63
2022/01/22 11:09:23;;;;;;;45.60;20.87;;;5.80;99.90;;;;;;5070596;28;20255;-64
2022/01/22 11:11:51;;;;;;;39.97;19.63;;;5.80;99.90;;;;;;5071123;28;20689;-63
2022/01/22 11:14:19;;;;;;;32.63;17.43;;;5.90;99.90;;;;;;5071447;28;20601;-62
2022/01/22 11:16:48;;;;;;;33.40;18.07;;;5.90;99.90;;;;;;5070791;28;20208;-67
2022/01/22 11:19:16;;;;;;;30.53;15.93;;;6.00;99.90;;;;;;5070824;28;20634;-65
2022/01/22 11:21:46;;;;;;;29.07;15.03;;;6.00;99.90;;;;;;5070717;28;20667;-65
2022/01/22 11:24:14;;;;;;;33.47;15.73;;;6.00;99.90;;;;;;5070824;28;20689;-66
2022/01/22 11:26:45;;;;;;;28.07;14.20;;;6.00;99.90;;;;;;5070660;28;20215;-66
2022/01/22 11:29:14;;;;;;;30.33;14.40;;;6.10;99.90;;;;;;5071096;28;20562;-66
2022/01/22 11:31:45;;;;;;;28.73;15.80;;;6.10;99.90;;;;;;5070955;28;20259;-65
2022/01/22 11:34:13;;;;;;;32.27;15.20;;;6.10;99.90;;;;;;5070952;28;20231;-69
2022/01/22 11:36:45;;;;;;;28.37;15.10;;;6.10;99.90;;;;;;5070614;28;20217;-65
2022/01/22 11:39:19;;;;;;;26.30;14.57;;;6.20;99.90;;;;;;5070693;28;20209;-66
2022/01/22 11:41:53;;;;;;;24.97;14.93;;;6.20;99.90;;;;;;5070935;28;20235;-67
2022/01/22 11:44:26;;;;;;;25.97;14.10;;;6.20;99.90;;;;;;5072939;28;20516;-60
2022/01/22 11:47:07;;;;;;;23.40;12.77;;;6.30;99.90;;;;;;5074667;28;20212;-60
2022/01/22 11:49:36;;;;;;;24.13;13.13;;;6.30;99.90;;;;;;5074367;28;20638;-60
2022/01/22 11:52:24;;;;;;;19.47;12.30;;;6.30;99.90;;;;;;5074707;28;20601;-63
2022/01/22 11:54:53;;;;;;;22.23;12.10;;;6.20;99.90;;;;;;5075226;28;20205;-63
2022/01/22 11:57:23;;;;;;;16.37;10.80;;;6.20;99.90;;;;;;5074660;28;20210;-63
2022/01/22 12:00:15;;;;;;;30.93;18.83;;;6.20;99.90;;;;;;5074050;28;20713;-62
2022/01/22 12:02:42;;;;;;;22.17;13.00;;;6.20;99.90;;;;;;5074928;28;20209;-62
2022/01/22 12:05:10;;;;;;;20.60;10.43;;;6.10;99.90;;;;;;5074108;28;20209;-62
2022/01/22 12:07:37;;;;;;;16.90;10.40;;;6.10;99.90;;;;;;5073945;28;20212;-64
2022/01/22 12:10:22;;;;;;;19.07;10.27;;;6.10;99.90;;;;;;5074030;28;20212;-61
2022/01/22 12:15:55;;;;;;;12.90;8.30;;;6.00;99.90;;;;;;5074038;28;20203;-64
2022/01/22 12:18:35;;;;;;;13.30;8.73;;;6.10;99.90;;;;;;5073521;28;20197;-64
2022/01/22 12:23:57;;;;;;;14.27;8.80;;;6.00;99.90;;;;;;5074268;28;20689;-64
2022/01/22 12:27:01;;;;;;;15.20;8.67;;;6.00;99.90;;;;;;5074354;28;20250;-62
2022/01/22 12:29:40;;;;;;;12.07;7.60;;;6.00;99.90;;;;;;5076990;28;20208;-62
2022/01/22 12:32:17;;;;;;;14.90;8.77;;;6.00;99.90;;;;;;5100768;28;20703;-63
2022/01/22 12:34:58;;;;;;;14.80;8.97;;;6.10;99.90;;;;;;5093921;28;20643;-62
2022/01/22 12:37:26;;;;;;;15.00;9.17;;;6.00;99.90;;;;;;5093137;28;20250;-63
2022/01/22 12:39:55;;;;;;;18.50;10.40;;;6.00;99.90;;;;;;5094945;28;20323;-63
2022/01/22 12:42:32;;;;;;;17.90;10.00;;;6.00;99.90;;;;;;5101699;28;20382;-62
2022/01/22 12:45:02;;;;;;;19.60;10.07;;;5.90;99.90;;;;;;5103255;28;20227;-62
2022/01/22 12:47:29;;;;;;;18.60;10.17;;;6.00;99.90;;;;;;5093209;28;20188;-64
2022/01/22 12:50:00;;;;;;;15.07;9.90;;;5.90;99.90;;;;;;5092916;28;20224;-62
2022/01/22 12:52:28;;;;;;;19.10;10.73;;;5.90;99.90;;;;;;5093255;28;20204;-62
2022/01/22 12:54:58;;;;;;;16.00;9.83;;;5.90;99.90;;;;;;5093509;28;20246;-64
2022/01/22 12:57:27;;;;;;;18.77;9.33;;;5.80;99.90;;;;;;5092941;28;20341;-64
2022/01/22 13:00:01;;;;;;;16.33;9.47;;;5.80;99.90;;;;;;5092678;28;20220;-60
2022/01/22 13:02:38;;;;;;;22.93;9.40;;;5.90;99.90;;;;;;5094083;28;20207;-62
2022/01/22 13:05:06;;;;;;;18.73;9.33;;;5.90;99.90;;;;;;5092995;28;20576;-63
2022/01/22 13:07:38;;;;;;;17.83;10.57;;;5.90;99.90;;;;;;5092509;28;20204;-62
2022/01/22 13:10:07;;;;;;;20.27;10.07;;;5.90;99.90;;;;;;5092682;28;20208;-59
2022/01/22 13:12:35;;;;;;;18.73;10.33;;;6.00;99.90;;;;;;5092764;28;20212;-59
2022/01/22 13:15:02;;;;;;;16.00;9.47;;;5.90;99.90;;;;;;5093215;28;20204;-61
2022/01/22 13:17:30;;;;;;;16.77;9.40;;;5.90;99.90;;;;;;5092296;28;20212;-60
2022/01/22 13:19:58;;;;;;;20.63;9.80;;;5.90;99.90;;;;;;5094346;28;20311;-62
2022/01/22 13:22:32;;;;;;;18.73;9.93;;;5.90;99.90;;;;;;5100175;28;20204;-60
2022/01/22 13:25:07;;;;;;;18.57;10.80;;;6.00;99.90;;;;;;5100452;28;20240;-59
2022/01/22 13:27:34;;;;;;;16.37;10.20;;;6.00;99.90;;;;;;5092478;28;20208;-61
2022/01/22 13:30:01;;;;;;;14.70;9.77;;;6.00;99.90;;;;;;5092011;28;20577;-60
2022/01/22 13:32:42;;;;;;;15.77;10.07;;;6.00;99.90;;;;;;5092701;28;20204;-62
2022/01/22 13:35:24;;;;;;;17.23;10.30;;;6.00;99.90;;;;;;5092228;28;20722;-59
2022/01/22 13:40:58;;;;;;;16.83;9.47;;;6.00;99.90;;;;;;5081272;28;20235;-61
2022/01/22 13:48:58;;;;;;;16.00;8.97;;;5.90;99.90;;;;;;5091412;28;20203;-60
2022/01/22 13:51:27;;;;;;;13.90;9.30;;;5.80;99.90;;;;;;5092161;28;20278;-58
2022/01/22 13:53:54;;;;;;;17.87;10.03;;;5.80;99.90;;;;;;5091738;28;20207;-59
2022/01/22 13:56:22;;;;;;;17.53;9.40;;;5.80;99.90;;;;;;5091543;28;20740;-62
2022/01/22 13:58:54;;;;;;;18.43;9.20;;;5.80;99.90;;;;;;5091162;28;20298;-60
2022/01/22 14:01:31;;;;;;;18.60;10.30;;;5.80;99.90;;;;;;5091954;28;20274;-61
2022/01/22 14:04:09;;;;;;;17.93;10.30;;;5.80;99.90;;;;;;5091984;28;20303;-61
2022/01/22 14:06:37;;;;;;;17.93;9.40;;;5.80;99.90;;;;;;5091265;28;20211;-62